createdAt,value
2023-01-20T00:00:14.530Z,73.81
2023-01-20T00:01:14.395Z,74.02
2023-01-20T00:02:15.414Z,74.02
2023-01-20T00:03:14.371Z,74.53
2023-01-20T00:04:14.375Z,73.91
2023-01-20T00:05:14.680Z,73.81
2023-01-20T00:06:15.376Z,74.74
2023-01-20T00:07:14.349Z,73.91
2023-01-20T00:08:14.304Z,73.91
2023-01-20T00:09:14.308Z,73.91
2023-01-20T00:10:14.316Z,74.74
2023-01-20T00:11:14.269Z,74.74
2023-01-20T00:12:15.297Z,73.71
2023-01-20T00:13:14.289Z,73.91
2023-01-20T00:14:14.240Z,73.91
2023-01-20T00:15:14.492Z,74.05
2023-01-20T00:16:14.285Z,74.05
2023-01-20T00:17:14.245Z,73.53
2023-01-20T00:18:14.215Z,73.63
2023-01-20T00:19:14.211Z,74.36
2023-01-20T00:20:14.176Z,74.40
2023-01-20T00:21:15.181Z,74.46
2023-01-20T00:22:15.146Z,74.26
2023-01-20T00:23:14.151Z,74.26
2023-01-20T00:24:14.165Z,74.36
2023-01-20T00:25:14.304Z,74.36
2023-01-20T00:26:14.123Z,74.36
2023-01-20T00:27:14.089Z,74.26
2023-01-20T00:28:14.102Z,74.36
2023-01-20T00:29:14.070Z,74.46
2023-01-20T00:30:14.102Z,74.26
2023-01-20T00:31:14.157Z,74.57
2023-01-20T00:32:14.059Z,74.36
2023-01-20T00:33:14.699Z,74.57
2023-01-20T00:34:14.059Z,74.15
2023-01-20T00:35:14.387Z,74.26
2023-01-20T00:36:14.059Z,74.19
2023-01-20T00:37:14.979Z,74.46
2023-01-20T00:38:13.985Z,74.46
2023-01-20T00:39:14.003Z,74.29
2023-01-20T00:40:13.952Z,74.67
2023-01-20T00:41:14.969Z,74.60
2023-01-20T00:42:13.969Z,74.57
2023-01-20T00:43:13.924Z,74.81
2023-01-20T00:44:14.937Z,74.71
2023-01-20T00:45:14.161Z,74.98
2023-01-20T00:46:14.009Z,75.12
2023-01-20T00:47:14.898Z,74.98
2023-01-20T00:48:13.883Z,74.67
2023-01-20T00:49:14.854Z,74.71
2023-01-20T00:50:13.894Z,74.57
2023-01-20T00:51:13.879Z,74.67
2023-01-20T00:52:13.824Z,74.67
2023-01-20T00:53:13.820Z,74.57
2023-01-20T00:54:13.837Z,74.36
2023-01-20T00:55:15.242Z,74.19
2023-01-20T00:56:14.858Z,74.29
2023-01-20T00:57:13.772Z,74.71
2023-01-20T00:58:14.768Z,74.57
2023-01-20T00:59:14.757Z,74.36
2023-01-20T01:00:13.781Z,74.46
2023-01-20T01:01:14.847Z,74.50
2023-01-20T01:02:13.876Z,74.50
2023-01-20T01:03:13.727Z,74.26
2023-01-20T01:04:13.720Z,74.15
2023-01-20T01:05:14.016Z,74.50
2023-01-20T01:06:13.722Z,74.77
2023-01-20T01:07:13.650Z,75.19
2023-01-20T01:08:14.651Z,74.57
2023-01-20T01:09:14.642Z,74.36
2023-01-20T01:10:14.660Z,74.36
2023-01-20T01:11:13.625Z,74.15
2023-01-20T01:12:13.635Z,74.26
2023-01-20T01:13:13.613Z,74.15
2023-01-20T01:14:13.608Z,74.60
2023-01-20T01:15:13.780Z,74.26
2023-01-20T01:16:13.807Z,74.71
2023-01-20T01:17:13.568Z,74.67
2023-01-20T01:18:13.568Z,74.46
2023-01-20T01:19:13.532Z,74.15
2023-01-20T01:20:13.552Z,73.74
2023-01-20T01:21:13.554Z,73.43
2023-01-20T01:22:13.528Z,73.77
2023-01-20T01:23:13.507Z,74.57
2023-01-20T01:24:13.530Z,74.19
2023-01-20T01:25:13.731Z,74.15
2023-01-20T01:26:14.480Z,73.84
2023-01-20T01:27:13.435Z,73.53
2023-01-20T01:28:13.459Z,73.84
2023-01-20T01:29:13.447Z,74.67
2023-01-20T01:30:13.459Z,74.88
2023-01-20T01:31:14.238Z,73.94
2023-01-20T01:32:13.406Z,73.94
2023-01-20T01:33:13.385Z,74.05
2023-01-20T01:34:13.387Z,73.84
2023-01-20T01:35:13.819Z,74.57
2023-01-20T01:36:13.353Z,73.81
2023-01-20T01:37:13.357Z,73.71
2023-01-20T01:38:13.356Z,74.15
2023-01-20T01:39:13.314Z,73.84
2023-01-20T01:40:13.319Z,73.32
2023-01-20T01:41:14.279Z,73.63
2023-01-20T01:42:13.265Z,73.74
2023-01-20T01:43:13.287Z,73.74
2023-01-20T01:44:13.284Z,73.39
2023-01-20T01:45:13.966Z,73.60
2023-01-20T01:46:14.236Z,73.50
2023-01-20T01:47:14.214Z,73.94
2023-01-20T01:48:13.226Z,74.05
2023-01-20T01:49:13.230Z,73.84
2023-01-20T01:50:13.185Z,73.32
2023-01-20T01:51:13.187Z,73.94
2023-01-20T01:52:13.195Z,73.81
2023-01-20T01:53:14.164Z,73.81
2023-01-20T01:54:13.186Z,73.50
2023-01-20T01:55:13.409Z,73.50
2023-01-20T01:56:13.160Z,73.81
2023-01-20T01:57:13.175Z,73.29
2023-01-20T01:58:14.114Z,73.91
2023-01-20T01:59:14.090Z,73.29
2023-01-20T02:00:14.083Z,72.77
2023-01-20T02:01:13.252Z,73.71
2023-01-20T02:02:13.150Z,73.08
2023-01-20T02:03:13.068Z,73.19
2023-01-20T02:04:14.037Z,73.63
2023-01-20T02:05:13.272Z,73.60
2023-01-20T02:06:13.018Z,73.08
2023-01-20T02:07:13.021Z,72.91
2023-01-20T02:08:12.999Z,73.32
2023-01-20T02:09:12.995Z,73.63
2023-01-20T02:10:13.095Z,73.11
2023-01-20T02:11:13.658Z,73.43
2023-01-20T02:12:12.934Z,73.01
2023-01-20T02:13:12.958Z,73.63
2023-01-20T02:14:12.931Z,73.11
2023-01-20T02:15:13.124Z,74.05
2023-01-20T02:16:13.906Z,73.32
2023-01-20T02:17:12.894Z,73.63
2023-01-20T02:18:12.876Z,73.84
2023-01-20T02:19:13.891Z,73.63
2023-01-20T02:20:12.863Z,73.46
2023-01-20T02:21:12.858Z,73.01
2023-01-20T02:22:12.871Z,73.22
2023-01-20T02:23:12.825Z,74.05
2023-01-20T02:24:12.828Z,73.11
2023-01-20T02:25:13.234Z,74.05
2023-01-20T02:26:12.843Z,73.84
2023-01-20T02:27:12.787Z,73.94
2023-01-20T02:28:12.763Z,73.94
2023-01-20T02:29:13.782Z,73.94
2023-01-20T02:30:13.643Z,74.05
2023-01-20T02:31:12.785Z,73.32
2023-01-20T02:32:12.774Z,73.11
2023-01-20T02:33:12.705Z,74.05
2023-01-20T02:34:12.739Z,73.22
2023-01-20T02:35:13.929Z,73.94
2023-01-20T02:36:12.688Z,73.94
2023-01-20T02:37:12.717Z,73.11
2023-01-20T02:38:12.703Z,74.05
2023-01-20T02:39:12.670Z,73.05
2023-01-20T02:40:13.636Z,73.57
2023-01-20T02:41:12.647Z,73.98
2023-01-20T02:42:12.651Z,73.74
2023-01-20T02:43:12.637Z,73.94
2023-01-20T02:44:13.587Z,74.46
2023-01-20T02:45:13.971Z,73.84
2023-01-20T02:46:13.583Z,73.98
2023-01-20T02:47:12.571Z,74.08
2023-01-20T02:48:12.576Z,73.84
2023-01-20T02:49:12.543Z,73.63
2023-01-20T02:50:12.548Z,73.84
2023-01-20T02:51:14.151Z,74.26
2023-01-20T02:52:13.515Z,74.08
2023-01-20T02:53:12.505Z,73.53
2023-01-20T02:54:12.504Z,73.32
2023-01-20T02:55:12.804Z,73.57
2023-01-20T02:56:12.472Z,73.43
2023-01-20T02:57:12.516Z,73.84
2023-01-20T02:58:13.500Z,74.05
2023-01-20T02:59:12.442Z,73.63
2023-01-20T03:00:12.406Z,73.63
2023-01-20T03:01:13.518Z,73.53
2023-01-20T03:02:12.457Z,74.15
2023-01-20T03:03:13.395Z,73.94
2023-01-20T03:04:13.390Z,74.05
2023-01-20T03:05:13.690Z,74.05
2023-01-20T03:06:12.360Z,74.15
2023-01-20T03:07:12.400Z,74.19
2023-01-20T03:08:13.337Z,74.05
2023-01-20T03:09:13.327Z,73.94
2023-01-20T03:10:12.330Z,73.22
2023-01-20T03:11:12.320Z,73.63
2023-01-20T03:12:12.296Z,73.74
2023-01-20T03:13:13.370Z,73.11
2023-01-20T03:14:12.304Z,73.63
2023-01-20T03:15:12.660Z,73.53
2023-01-20T03:16:12.354Z,73.63
2023-01-20T03:17:12.252Z,73.32
2023-01-20T03:18:12.226Z,73.22
2023-01-20T03:19:12.224Z,73.25
2023-01-20T03:20:12.242Z,73.32
2023-01-20T03:21:12.224Z,73.74
2023-01-20T03:22:12.177Z,73.32
2023-01-20T03:23:12.200Z,73.32
2023-01-20T03:24:12.151Z,72.71
2023-01-20T03:25:13.570Z,73.63
2023-01-20T03:26:12.120Z,73.74
2023-01-20T03:27:13.156Z,72.91
2023-01-20T03:28:12.144Z,73.43
2023-01-20T03:29:12.101Z,73.36
2023-01-20T03:30:12.130Z,74.08
2023-01-20T03:31:12.195Z,73.67
2023-01-20T03:32:12.065Z,74.08
2023-01-20T03:33:13.096Z,73.94
2023-01-20T03:34:12.045Z,74.15
2023-01-20T03:35:12.092Z,73.67
2023-01-20T03:36:12.035Z,73.88
2023-01-20T03:37:13.019Z,73.25
2023-01-20T03:38:12.005Z,73.77
2023-01-20T03:39:12.016Z,73.46
2023-01-20T03:40:12.002Z,73.53
2023-01-20T03:41:11.990Z,73.63
2023-01-20T03:42:11.970Z,73.77
2023-01-20T03:43:11.976Z,73.22
2023-01-20T03:44:12.927Z,73.36
2023-01-20T03:45:12.004Z,73.63
2023-01-20T03:46:13.011Z,72.91
2023-01-20T03:47:11.909Z,74.08
2023-01-20T03:48:11.907Z,72.91
2023-01-20T03:49:11.875Z,73.84
2023-01-20T03:50:12.896Z,73.63
2023-01-20T03:51:11.906Z,73.63
2023-01-20T03:52:11.863Z,73.43
2023-01-20T03:53:12.865Z,73.74
2023-01-20T03:54:11.830Z,73.01
2023-01-20T03:55:11.839Z,73.53
2023-01-20T03:56:11.806Z,73.94
2023-01-20T03:57:11.794Z,72.81
2023-01-20T03:58:12.815Z,73.43
2023-01-20T03:59:11.808Z,72.91
2023-01-20T04:00:12.761Z,73.22
2023-01-20T04:01:18.497Z,73.22
2023-01-20T04:02:12.940Z,73.01
2023-01-20T04:03:11.788Z,73.22
2023-01-20T04:04:11.730Z,73.32
2023-01-20T04:05:11.814Z,73.32
2023-01-20T04:06:11.700Z,73.25
2023-01-20T04:07:11.681Z,72.91
2023-01-20T04:08:11.679Z,73.05
2023-01-20T04:09:12.662Z,73.05
2023-01-20T04:10:11.676Z,73.01
2023-01-20T04:11:11.681Z,72.91
2023-01-20T04:12:11.674Z,72.91
2023-01-20T04:13:11.617Z,73.25
2023-01-20T04:14:11.633Z,73.36
2023-01-20T04:15:11.620Z,73.22
2023-01-20T04:16:11.678Z,73.15
2023-01-20T04:17:11.605Z,73.32
2023-01-20T04:18:11.654Z,73.22
2023-01-20T04:19:11.557Z,72.81
2023-01-20T04:20:12.564Z,73.22
2023-01-20T04:21:11.535Z,72.91
2023-01-20T04:22:11.530Z,72.91
2023-01-20T04:23:11.547Z,72.63
2023-01-20T04:24:12.518Z,72.81
2023-01-20T04:25:11.665Z,73.01
2023-01-20T04:26:11.505Z,73.11
2023-01-20T04:27:12.467Z,73.01
2023-01-20T04:28:12.477Z,73.01
2023-01-20T04:29:13.335Z,73.53
2023-01-20T04:30:12.486Z,73.01
2023-01-20T04:31:28.671Z,73.63
2023-01-20T04:32:12.454Z,73.46
2023-01-20T04:33:11.444Z,73.43
2023-01-20T04:34:11.419Z,73.22
2023-01-20T04:35:11.398Z,73.05
2023-01-20T04:36:11.397Z,73.57
2023-01-20T04:37:12.366Z,73.46
2023-01-20T04:38:11.339Z,73.46
2023-01-20T04:39:12.361Z,72.84
2023-01-20T04:40:11.352Z,72.74
2023-01-20T04:41:11.338Z,73.43
2023-01-20T04:42:11.326Z,73.46
2023-01-20T04:43:11.336Z,73.88
2023-01-20T04:44:11.306Z,73.15
2023-01-20T04:45:11.301Z,73.67
2023-01-20T04:46:11.306Z,73.46
2023-01-20T04:47:12.260Z,73.36
2023-01-20T04:48:11.265Z,72.74
2023-01-20T04:49:11.244Z,73.77
2023-01-20T04:50:11.252Z,73.67
2023-01-20T04:51:11.228Z,73.53
2023-01-20T04:52:11.199Z,73.43
2023-01-20T04:53:11.204Z,73.67
2023-01-20T04:54:11.215Z,73.57
2023-01-20T04:55:11.179Z,74.08
2023-01-20T04:56:11.184Z,74.08
2023-01-20T04:57:11.152Z,73.98
2023-01-20T04:58:11.133Z,73.98
2023-01-20T04:59:11.139Z,74.08
2023-01-20T05:00:12.142Z,73.25
2023-01-20T05:01:11.183Z,74.08
2023-01-20T05:02:12.182Z,73.98
2023-01-20T05:03:11.124Z,74.19
2023-01-20T05:04:11.065Z,73.98
2023-01-20T05:05:12.167Z,74.08
2023-01-20T05:06:11.068Z,73.98
2023-01-20T05:07:11.026Z,73.98
2023-01-20T05:08:12.049Z,73.67
2023-01-20T05:09:11.013Z,73.57
2023-01-20T05:10:13.102Z,73.80
2023-01-20T05:11:11.007Z,74.19
2023-01-20T05:12:12.035Z,74.71
2023-01-20T05:13:11.962Z,75.12
2023-01-20T05:14:10.992Z,74.40
2023-01-20T05:15:10.950Z,73.80
2023-01-20T05:16:11.982Z,74.29
2023-01-20T05:17:10.920Z,74.50
2023-01-20T05:18:10.898Z,74.40
2023-01-20T05:19:10.891Z,74.50
2023-01-20T05:20:10.944Z,74.50
2023-01-20T05:21:10.881Z,74.81
2023-01-20T05:22:10.916Z,75.02
2023-01-20T05:23:10.845Z,75.02
2023-01-20T05:24:11.860Z,75.02
2023-01-20T05:25:10.837Z,75.02
2023-01-20T05:26:10.812Z,75.22
2023-01-20T05:27:10.820Z,75.02
2023-01-20T05:28:11.863Z,75.02
2023-01-20T05:29:10.788Z,74.98
2023-01-20T05:30:10.807Z,74.91
2023-01-20T05:31:10.873Z,74.81
2023-01-20T05:32:10.757Z,74.71
2023-01-20T05:33:10.780Z,75.12
2023-01-20T05:34:11.731Z,75.12
2023-01-20T05:35:11.789Z,75.02
2023-01-20T05:36:10.729Z,75.02
2023-01-20T05:37:10.715Z,75.12
2023-01-20T05:38:10.726Z,74.88
2023-01-20T05:39:10.692Z,74.91
2023-01-20T05:40:10.710Z,75.02
2023-01-20T05:41:11.676Z,75.02
2023-01-20T05:42:10.662Z,75.15
2023-01-20T05:43:12.862Z,75.05
2023-01-20T05:44:11.657Z,75.22
2023-01-20T05:45:11.617Z,75.02
2023-01-20T05:46:11.636Z,75.12
2023-01-20T05:47:10.641Z,74.91
2023-01-20T05:48:10.592Z,74.91
2023-01-20T05:49:10.570Z,75.12
2023-01-20T05:50:10.553Z,74.81
2023-01-20T05:51:10.576Z,75.12
2023-01-20T05:52:10.569Z,74.84
2023-01-20T05:53:10.564Z,74.95
2023-01-20T05:54:10.535Z,74.91
2023-01-20T05:55:10.496Z,74.84
2023-01-20T05:56:11.478Z,75.26
2023-01-20T05:57:10.496Z,75.05
2023-01-20T05:58:10.522Z,75.05
2023-01-20T05:59:10.469Z,74.84
2023-01-20T06:00:10.449Z,75.05
2023-01-20T06:01:10.473Z,75.15
2023-01-20T06:02:10.437Z,75.12
2023-01-20T06:03:11.400Z,74.71
2023-01-20T06:04:10.457Z,74.81
2023-01-20T06:05:10.384Z,74.63
2023-01-20T06:06:10.388Z,74.43
2023-01-20T06:07:10.367Z,74.98
2023-01-20T06:08:10.376Z,75.29
2023-01-20T06:09:10.356Z,75.29
2023-01-20T06:10:10.372Z,74.84
2023-01-20T06:11:10.351Z,75.09
2023-01-20T06:12:10.319Z,75.19
2023-01-20T06:13:10.306Z,75.26
2023-01-20T06:14:10.312Z,74.95
2023-01-20T06:15:10.279Z,75.15
2023-01-20T06:16:11.393Z,75.05
2023-01-20T06:17:10.257Z,75.05
2023-01-20T06:18:10.271Z,74.95
2023-01-20T06:19:10.231Z,74.95
2023-01-20T06:20:10.263Z,75.36
2023-01-20T06:21:10.253Z,75.15
2023-01-20T06:22:10.215Z,74.74
2023-01-20T06:23:10.202Z,74.84
2023-01-20T06:24:10.206Z,74.74
2023-01-20T06:25:10.179Z,74.63
2023-01-20T06:26:10.222Z,74.74
2023-01-20T06:27:10.175Z,75.15
2023-01-20T06:28:11.174Z,75.05
2023-01-20T06:29:10.127Z,75.15
2023-01-20T06:30:10.112Z,74.81
2023-01-20T06:31:11.240Z,74.50
2023-01-20T06:32:11.098Z,74.11
2023-01-20T06:33:10.117Z,74.43
2023-01-20T06:34:10.081Z,74.84
2023-01-20T06:35:11.365Z,74.63
2023-01-20T06:36:10.043Z,74.32
2023-01-20T06:37:10.054Z,74.29
2023-01-20T06:38:10.033Z,74.50
2023-01-20T06:39:10.052Z,74.50
2023-01-20T06:40:11.045Z,74.40
2023-01-20T06:41:10.993Z,74.19
2023-01-20T06:42:11.571Z,74.40
2023-01-20T06:43:09.996Z,74.71
2023-01-20T06:44:09.981Z,74.29
2023-01-20T06:45:09.980Z,74.81
2023-01-20T06:46:10.036Z,73.88
2023-01-20T06:47:09.947Z,73.88
2023-01-20T06:48:09.914Z,74.40
2023-01-20T06:49:09.921Z,73.98
2023-01-20T06:50:09.893Z,74.19
2023-01-20T06:51:10.910Z,74.19
2023-01-20T06:52:10.883Z,74.08
2023-01-20T06:53:09.901Z,73.36
2023-01-20T06:54:09.901Z,73.77
2023-01-20T06:55:10.845Z,73.57
2023-01-20T06:56:09.851Z,73.36
2023-01-20T06:57:10.835Z,73.88
2023-01-20T06:58:09.857Z,73.98
2023-01-20T06:59:09.837Z,73.63
2023-01-20T07:00:09.796Z,73.43
2023-01-20T07:01:09.978Z,73.25
2023-01-20T07:02:09.913Z,73.53
2023-01-20T07:03:09.799Z,73.74
2023-01-20T07:04:10.736Z,73.53
2023-01-20T07:05:09.769Z,73.32
2023-01-20T07:06:09.751Z,73.32
2023-01-20T07:07:09.702Z,73.25
2023-01-20T07:08:09.724Z,72.91
2023-01-20T07:09:10.741Z,72.91
2023-01-20T07:10:09.714Z,73.01
2023-01-20T07:11:09.679Z,73.05
2023-01-20T07:12:09.657Z,73.05
2023-01-20T07:13:09.656Z,73.36
2023-01-20T07:14:09.779Z,73.25
2023-01-20T07:15:09.633Z,73.15
2023-01-20T07:16:13.067Z,73.98
2023-01-20T07:17:09.620Z,73.77
2023-01-20T07:18:09.601Z,73.67
2023-01-20T07:19:09.600Z,73.77
2023-01-20T07:20:09.638Z,73.46
2023-01-20T07:21:09.555Z,73.25
2023-01-20T07:22:09.595Z,73.25
2023-01-20T07:23:10.575Z,73.25
2023-01-20T07:24:10.536Z,72.84
2023-01-20T07:25:09.525Z,73.15
2023-01-20T07:26:09.602Z,73.05
2023-01-20T07:27:09.516Z,73.36
2023-01-20T07:28:09.511Z,73.57
2023-01-20T07:29:09.504Z,73.46
2023-01-20T07:30:09.511Z,73.05
2023-01-20T07:31:09.475Z,73.05
2023-01-20T07:32:09.492Z,72.84
2023-01-20T07:33:09.445Z,72.94
2023-01-20T07:34:09.469Z,72.94
2023-01-20T07:35:09.431Z,73.25
2023-01-20T07:36:09.414Z,73.18
2023-01-20T07:37:09.419Z,73.28
2023-01-20T07:38:09.380Z,73.28
2023-01-20T07:39:09.383Z,73.08
2023-01-20T07:40:09.365Z,73.39
2023-01-20T07:41:09.356Z,73.74
2023-01-20T07:42:09.353Z,72.91
2023-01-20T07:43:09.351Z,74.15
2023-01-20T07:44:10.328Z,73.94
2023-01-20T07:45:09.315Z,73.84
2023-01-20T07:46:09.370Z,74.05
2023-01-20T07:47:09.293Z,73.84
2023-01-20T07:48:10.317Z,73.70
2023-01-20T07:49:12.222Z,73.60
2023-01-20T07:50:09.237Z,73.08
2023-01-20T07:51:09.223Z,73.60
2023-01-20T07:52:09.224Z,72.98
2023-01-20T07:53:09.227Z,73.32
2023-01-20T07:54:10.202Z,73.63
2023-01-20T07:55:09.221Z,73.80
2023-01-20T07:56:09.174Z,73.80
2023-01-20T07:57:09.178Z,72.98
2023-01-20T07:58:09.156Z,73.80
2023-01-20T07:59:09.162Z,73.49
2023-01-20T08:00:09.158Z,73.39
2023-01-20T08:01:09.356Z,73.28
2023-01-20T08:02:09.116Z,72.98
2023-01-20T08:03:09.103Z,73.08
2023-01-20T08:04:09.103Z,72.88
2023-01-20T08:05:09.142Z,73.18
2023-01-20T08:06:09.102Z,73.08
2023-01-20T08:07:09.070Z,72.88
2023-01-20T08:08:09.046Z,72.77
2023-01-20T08:09:09.110Z,73.18
2023-01-20T08:10:09.139Z,73.08
2023-01-20T08:11:09.015Z,73.18
2023-01-20T08:12:10.024Z,73.18
2023-01-20T08:13:16.616Z,72.53
2023-01-20T08:14:08.969Z,72.94
2023-01-20T08:15:08.983Z,73.18
2023-01-20T08:16:08.965Z,72.88
2023-01-20T08:17:08.968Z,72.46
2023-01-20T08:18:08.988Z,72.56
2023-01-20T08:19:08.912Z,72.88
2023-01-20T08:20:08.937Z,72.98
2023-01-20T08:21:08.916Z,72.18
2023-01-20T08:22:08.921Z,72.77
2023-01-20T08:23:09.871Z,72.56
2023-01-20T08:24:08.883Z,72.15
2023-01-20T08:25:09.872Z,73.08
2023-01-20T08:26:08.849Z,72.98
2023-01-20T08:27:08.869Z,72.46
2023-01-20T08:28:09.852Z,72.67
2023-01-20T08:29:08.863Z,72.46
2023-01-20T08:30:08.794Z,72.88
2023-01-20T08:31:08.899Z,72.67
2023-01-20T08:32:09.462Z,72.22
2023-01-20T08:33:08.965Z,72.22
2023-01-20T08:34:08.817Z,72.22
2023-01-20T08:35:09.501Z,72.42
2023-01-20T08:36:09.744Z,72.22
2023-01-20T08:37:08.727Z,72.36
2023-01-20T08:38:08.725Z,72.42
2023-01-20T08:39:08.756Z,72.22
2023-01-20T08:40:08.726Z,72.22
2023-01-20T08:41:08.680Z,71.77
2023-01-20T08:42:08.658Z,71.46
2023-01-20T08:43:08.664Z,71.25
2023-01-20T08:44:08.662Z,70.97
2023-01-20T08:45:08.658Z,71.04
2023-01-20T08:46:08.775Z,71.08
2023-01-20T08:47:08.646Z,70.87
2023-01-20T08:48:08.605Z,70.67
2023-01-20T08:49:08.620Z,70.42
2023-01-20T08:50:08.688Z,70.53
2023-01-20T08:51:08.627Z,70.53
2023-01-20T08:52:10.726Z,70.63
2023-01-20T08:53:08.549Z,70.42
2023-01-20T08:54:08.542Z,70.42
2023-01-20T08:55:08.537Z,69.87
2023-01-20T08:56:08.562Z,69.98
2023-01-20T08:57:08.524Z,69.56
2023-01-20T08:58:08.537Z,69.67
2023-01-20T08:59:08.489Z,69.67
2023-01-20T09:00:08.478Z,69.67
2023-01-20T09:01:09.514Z,69.56
2023-01-20T09:02:08.502Z,69.46
2023-01-20T09:03:09.415Z,69.56
2023-01-20T09:04:08.490Z,69.15
2023-01-20T09:05:08.428Z,69.15
2023-01-20T09:06:09.431Z,68.84
2023-01-20T09:07:08.419Z,68.74
2023-01-20T09:08:08.499Z,68.84
2023-01-20T09:09:08.396Z,69.25
2023-01-20T09:10:08.927Z,69.25
2023-01-20T09:11:08.407Z,69.04
2023-01-20T09:12:08.358Z,68.91
2023-01-20T09:13:08.346Z,69.04
2023-01-20T09:14:08.326Z,69.04
2023-01-20T09:15:09.364Z,69.04
2023-01-20T09:16:08.450Z,68.63
2023-01-20T09:17:08.291Z,68.53
2023-01-20T09:18:08.264Z,68.40
2023-01-20T09:19:08.268Z,68.70
2023-01-20T09:20:08.269Z,68.49
2023-01-20T09:21:08.256Z,67.98
2023-01-20T09:22:08.296Z,67.70
2023-01-20T09:23:08.208Z,67.08
2023-01-20T09:24:08.210Z,68.22
2023-01-20T09:25:08.201Z,67.94
2023-01-20T09:26:08.216Z,67.80
2023-01-20T09:27:08.163Z,68.46
2023-01-20T09:28:08.224Z,68.77
2023-01-20T09:29:08.158Z,69.15
2023-01-20T09:30:08.157Z,68.63
2023-01-20T09:31:08.239Z,68.43
2023-01-20T09:32:08.141Z,68.63
2023-01-20T09:33:08.139Z,68.53
2023-01-20T09:34:08.105Z,68.29
2023-01-20T09:35:08.920Z,68.94
2023-01-20T09:36:08.076Z,68.80
2023-01-20T09:37:08.102Z,68.80
2023-01-20T09:38:08.071Z,68.70
2023-01-20T09:39:08.033Z,68.67
2023-01-20T09:40:08.128Z,68.80
2023-01-20T09:41:08.011Z,68.40
2023-01-20T09:42:08.040Z,68.46
2023-01-20T09:43:08.020Z,68.05
2023-01-20T09:44:08.012Z,67.85
2023-01-20T09:45:07.974Z,68.36
2023-01-20T09:46:08.045Z,68.29
2023-01-20T09:47:07.962Z,67.43
2023-01-20T09:48:07.966Z,67.64
2023-01-20T09:49:07.934Z,67.12
2023-01-20T09:50:07.948Z,67.95
2023-01-20T09:51:07.952Z,68.29
2023-01-20T09:52:07.966Z,68.05
2023-01-20T09:53:07.885Z,67.85
2023-01-20T09:54:07.883Z,68.36
2023-01-20T09:55:07.877Z,67.82
2023-01-20T09:56:08.605Z,68.36
2023-01-20T09:57:07.889Z,67.95
2023-01-20T09:58:07.838Z,67.85
2023-01-20T09:59:07.819Z,66.71
2023-01-20T10:00:07.817Z,66.94
2023-01-20T10:01:08.891Z,67.67
2023-01-20T10:02:07.820Z,67.88
2023-01-20T10:03:08.787Z,67.74
2023-01-20T10:04:07.783Z,67.54
2023-01-20T10:05:07.819Z,67.36
2023-01-20T10:06:07.758Z,68.08
2023-01-20T10:07:07.731Z,68.19
2023-01-20T10:08:08.739Z,67.98
2023-01-20T10:09:07.749Z,68.26
2023-01-20T10:10:07.720Z,67.54
2023-01-20T10:11:07.742Z,68.46
2023-01-20T10:12:07.684Z,67.85
2023-01-20T10:13:07.693Z,67.74
2023-01-20T10:14:07.681Z,68.12
2023-01-20T10:15:07.676Z,67.50
2023-01-20T10:16:07.787Z,67.50
2023-01-20T10:17:07.658Z,66.88
2023-01-20T10:18:07.632Z,66.36
2023-01-20T10:19:08.591Z,67.19
2023-01-20T10:20:08.610Z,67.19
2023-01-20T10:21:07.572Z,67.09
2023-01-20T10:22:07.561Z,66.99
2023-01-20T10:23:08.582Z,67.06
2023-01-20T10:24:07.551Z,66.99
2023-01-20T10:25:07.550Z,66.57
2023-01-20T10:26:07.589Z,66.47
2023-01-20T10:27:07.505Z,66.67
2023-01-20T10:28:08.503Z,65.88
2023-01-20T10:29:07.517Z,65.88
2023-01-20T10:30:07.492Z,66.36
2023-01-20T10:31:07.601Z,66.47
2023-01-20T10:32:08.453Z,65.99
2023-01-20T10:33:07.455Z,65.67
2023-01-20T10:34:07.442Z,66.67
2023-01-20T10:35:07.427Z,66.78
2023-01-20T10:36:08.461Z,66.57
2023-01-20T10:37:07.399Z,65.54
2023-01-20T10:38:07.386Z,66.16
2023-01-20T10:39:07.379Z,66.78
2023-01-20T10:40:07.409Z,66.67
2023-01-20T10:41:07.360Z,65.47
2023-01-20T10:42:07.383Z,66.50
2023-01-20T10:43:07.366Z,66.81
2023-01-20T10:44:07.322Z,66.29
2023-01-20T10:45:07.320Z,65.44
2023-01-20T10:46:07.356Z,66.47
2023-01-20T10:47:08.305Z,66.36
2023-01-20T10:48:07.312Z,66.23
2023-01-20T10:49:07.316Z,66.44
2023-01-20T10:50:07.362Z,66.64
2023-01-20T10:51:07.254Z,65.51
2023-01-20T10:52:07.229Z,67.09
2023-01-20T10:53:07.229Z,66.23
2023-01-20T10:54:07.260Z,66.23
2023-01-20T10:55:07.263Z,65.89
2023-01-20T10:56:07.211Z,65.58
2023-01-20T10:57:07.177Z,65.09
2023-01-20T10:58:07.239Z,65.41
2023-01-20T10:59:07.159Z,65.82
2023-01-20T11:00:07.165Z,65.37
2023-01-20T11:01:07.183Z,65.58
2023-01-20T11:02:12.292Z,65.17
2023-01-20T11:03:08.148Z,64.96
2023-01-20T11:04:14.733Z,65.03
2023-01-20T11:05:07.108Z,65.03
2023-01-20T11:06:07.109Z,65.37
2023-01-20T11:07:07.073Z,65.58
2023-01-20T11:08:07.050Z,65.34
2023-01-20T11:09:07.054Z,65.14
2023-01-20T11:10:07.042Z,65.03
2023-01-20T11:11:08.054Z,65.76
2023-01-20T11:12:07.010Z,65.45
2023-01-20T11:13:07.006Z,65.03
2023-01-20T11:14:07.039Z,64.93
2023-01-20T11:15:06.992Z,64.73
2023-01-20T11:16:07.028Z,63.49
2023-01-20T11:17:06.977Z,64.93
2023-01-20T11:18:07.005Z,64.42
2023-01-20T11:19:06.944Z,63.90
2023-01-20T11:20:06.935Z,64.52
2023-01-20T11:21:06.928Z,63.90
2023-01-20T11:22:06.902Z,64.52
2023-01-20T11:23:06.930Z,63.90
2023-01-20T11:24:06.908Z,63.59
2023-01-20T11:25:07.872Z,63.79
2023-01-20T11:26:06.861Z,63.49
2023-01-20T11:27:06.873Z,63.54
2023-01-20T11:28:07.858Z,64.40
2023-01-20T11:29:06.860Z,65.12
2023-01-20T11:30:07.843Z,65.12
2023-01-20T11:31:06.865Z,65.54
2023-01-20T11:32:06.819Z,65.72
2023-01-20T11:33:06.848Z,65.92
2023-01-20T11:34:06.806Z,65.17
2023-01-20T11:35:06.769Z,64.78
2023-01-20T11:36:06.761Z,65.48
2023-01-20T11:37:06.766Z,65.06
2023-01-20T11:38:06.743Z,65.14
2023-01-20T11:39:06.724Z,64.86
2023-01-20T11:40:06.724Z,65.06
2023-01-20T11:41:07.731Z,65.14
2023-01-20T11:42:06.691Z,65.14
2023-01-20T11:43:06.687Z,65.03
2023-01-20T11:44:06.702Z,63.59
2023-01-20T11:45:20.903Z,63.62
2023-01-20T11:46:07.682Z,64.00
2023-01-20T11:47:06.660Z,64.42
2023-01-20T11:48:06.627Z,64.52
2023-01-20T11:49:06.614Z,63.82
2023-01-20T11:50:06.639Z,63.93
2023-01-20T11:51:07.603Z,63.93
2023-01-20T11:52:07.616Z,64.65
2023-01-20T11:53:06.598Z,64.76
2023-01-20T11:54:06.562Z,64.93
2023-01-20T11:55:07.540Z,65.03
2023-01-20T11:56:06.555Z,64.42
2023-01-20T11:57:06.557Z,64.62
2023-01-20T11:58:06.533Z,63.90
2023-01-20T11:59:06.509Z,63.07
2023-01-20T12:00:06.493Z,63.18
2023-01-20T12:01:07.525Z,63.79
2023-01-20T12:02:06.556Z,63.35
2023-01-20T12:03:06.468Z,63.59
2023-01-20T12:04:06.489Z,63.69
2023-01-20T12:05:06.502Z,63.28
2023-01-20T12:06:06.431Z,62.66
2023-01-20T12:07:07.468Z,62.97
2023-01-20T12:08:07.409Z,63.79
2023-01-20T12:09:06.397Z,62.76
2023-01-20T12:10:06.394Z,62.27
2023-01-20T12:11:06.393Z,62.69
2023-01-20T12:12:06.411Z,63.62
2023-01-20T12:13:06.359Z,63.42
2023-01-20T12:14:06.345Z,63.69
2023-01-20T12:15:06.370Z,63.18
2023-01-20T12:16:06.393Z,62.69
2023-01-20T12:17:06.312Z,63.42
2023-01-20T12:18:09.459Z,63.51
2023-01-20T12:19:06.290Z,63.62
2023-01-20T12:20:07.291Z,63.28
2023-01-20T12:21:07.303Z,62.87
2023-01-20T12:22:06.297Z,63.79
2023-01-20T12:23:06.259Z,63.79
2023-01-20T12:24:06.238Z,63.42
2023-01-20T12:25:06.225Z,63.69
2023-01-20T12:26:06.205Z,63.69
2023-01-20T12:27:06.215Z,64.62
2023-01-20T12:28:07.204Z,63.79
2023-01-20T12:29:07.174Z,63.79
2023-01-20T12:30:06.169Z,63.35
2023-01-20T12:31:06.221Z,63.67
2023-01-20T12:32:07.288Z,63.35
2023-01-20T12:33:06.148Z,63.35
2023-01-20T12:34:06.182Z,63.25
2023-01-20T12:35:06.108Z,63.77
2023-01-20T12:36:06.129Z,63.77
2023-01-20T12:37:06.104Z,63.67
2023-01-20T12:38:06.105Z,63.84
2023-01-20T12:39:07.136Z,63.77
2023-01-20T12:40:06.085Z,63.74
2023-01-20T12:41:06.046Z,63.67
2023-01-20T12:42:06.041Z,63.77
2023-01-20T12:43:06.090Z,64.49
2023-01-20T12:44:06.009Z,63.59
2023-01-20T12:45:06.036Z,63.79
2023-01-20T12:46:06.053Z,63.49
2023-01-20T12:47:06.025Z,64.73
2023-01-20T12:48:05.966Z,64.80
2023-01-20T12:49:06.960Z,64.90
2023-01-20T12:50:07.005Z,64.90
2023-01-20T12:51:05.957Z,64.80
2023-01-20T12:52:05.964Z,64.59